Terminal Aerodrome Forecast
Issued by NWS Albany, NY

Home | Current Version | Previous Version | Text Only | Print | Product List | Glossary On
Versions: 1 2 3 4 5 6 7 8 9 10 11 12 13 14 15 16 17 18 19 20 21 22 23 24 25 26 27 28 29 30 31 32 33 34
000
FTUS41 KALY 251100 RRA
TAFGFL
TAF
KGFL 251141Z 2512/2612 23004KT 1/4SM FG VV002
      TEMPO 2512/2514 3SM BR SCT002 SCT250
     FM251400 21004KT P6SM SKC
     FM251500 22006KT P6SM SCT035
     FM251800 22007KT P6SM BKN040 BKN080
     FM252300 23006KT P6SM VCSH SCT025 OVC040
     FM260400 24007KT 5SM BR OVC035
     FM260900 27010KT P6SM OVC035=

USA.gov is the U.S. government's official web portal to all federal, state and local government web resources and services.